createdAt,value
2018-03-31T00:00:19.047Z,99.99
2018-03-31T00:00:45.185Z,99.99
2018-03-31T00:01:11.316Z,99.99
2018-03-31T00:01:37.462Z,99.99
2018-03-31T00:02:03.628Z,99.99
2018-03-31T00:02:29.765Z,99.99
2018-03-31T00:02:55.902Z,99.99
2018-03-31T00:03:22.043Z,99.99
2018-03-31T00:03:48.183Z,99.99
2018-03-31T00:04:14.320Z,99.99
2018-03-31T00:04:40.476Z,99.99
2018-03-31T00:05:06.612Z,99.99
2018-03-31T00:05:32.746Z,99.99
2018-03-31T00:05:58.888Z,99.99
2018-03-31T00:06:25.021Z,99.99
2018-03-31T00:06:51.153Z,99.99
2018-03-31T00:07:17.302Z,99.99
2018-03-31T00:07:43.437Z,99.99
2018-03-31T00:08:09.591Z,99.99
2018-03-31T00:08:35.729Z,99.99
2018-03-31T00:09:01.868Z,99.99
2018-03-31T00:09:28.012Z,99.99
2018-03-31T00:09:54.148Z,99.99
2018-03-31T00:10:20.288Z,99.99
2018-03-31T00:10:46.423Z,99.99
2018-03-31T00:11:12.565Z,99.99
2018-03-31T00:11:38.720Z,99.99
2018-03-31T00:12:04.859Z,99.99
2018-03-31T00:12:31.002Z,99.99
2018-03-31T00:12:57.138Z,99.99
2018-03-31T00:13:23.299Z,99.99
2018-03-31T00:13:49.438Z,99.99
2018-03-31T00:14:15.577Z,99.99
2018-03-31T00:14:41.718Z,99.99
2018-03-31T00:15:07.859Z,99.99
2018-03-31T00:15:34.002Z,99.99
2018-03-31T00:16:00.132Z,99.99
2018-03-31T00:16:26.297Z,99.99
2018-03-31T00:16:52.434Z,99.99
2018-03-31T00:17:18.577Z,99.99
2018-03-31T00:17:44.720Z,99.99
2018-03-31T00:18:10.855Z,99.99
2018-03-31T00:18:36.985Z,99.99
2018-03-31T00:19:03.126Z,99.99
2018-03-31T00:19:29.300Z,99.99
2018-03-31T00:19:55.455Z,99.99
2018-03-31T00:20:21.584Z,99.99
2018-03-31T00:20:47.726Z,99.99
2018-03-31T00:21:13.860Z,99.99
2018-03-31T00:21:40.024Z,99.99
2018-03-31T00:22:06.160Z,99.99
2018-03-31T00:22:32.322Z,99.99
2018-03-31T00:22:58.485Z,99.99
2018-03-31T00:23:24.618Z,99.99
2018-03-31T00:23:50.767Z,99.99
2018-03-31T00:24:16.925Z,99.99
2018-03-31T00:24:43.092Z,99.99
2018-03-31T00:25:09.232Z,99.99
2018-03-31T00:25:35.364Z,99.99
2018-03-31T00:26:01.529Z,99.99
2018-03-31T00:26:27.661Z,99.99
2018-03-31T00:26:53.801Z,99.99
2018-03-31T00:27:19.966Z,99.99
2018-03-31T00:27:46.098Z,99.99
2018-03-31T00:28:12.235Z,99.99
2018-03-31T00:28:38.400Z,99.99
2018-03-31T00:29:04.537Z,99.99
2018-03-31T00:29:30.673Z,99.99
2018-03-31T00:29:56.835Z,99.99
2018-03-31T00:30:22.973Z,99.99
2018-03-31T00:30:49.110Z,99.99
2018-03-31T00:31:15.245Z,99.99
2018-03-31T00:31:41.383Z,99.99
2018-03-31T00:32:07.523Z,99.99
2018-03-31T00:32:33.659Z,99.99
2018-03-31T00:32:59.796Z,99.99
2018-03-31T00:33:25.935Z,99.99
2018-03-31T00:33:52.071Z,99.99
2018-03-31T00:34:18.207Z,99.99
2018-03-31T00:34:44.346Z,99.99
2018-03-31T00:35:10.513Z,99.99
2018-03-31T00:35:36.644Z,99.99
2018-03-31T00:36:02.785Z,99.99
2018-03-31T00:36:28.916Z,99.99
2018-03-31T00:36:55.058Z,99.99
2018-03-31T00:37:21.194Z,99.99
2018-03-31T00:37:47.331Z,99.99
2018-03-31T00:38:13.470Z,99.99
2018-03-31T00:38:39.605Z,99.99
2018-03-31T00:39:05.744Z,99.99
2018-03-31T00:39:31.889Z,99.99
2018-03-31T00:39:58.048Z,99.99
2018-03-31T00:40:24.181Z,99.99
2018-03-31T00:40:50.316Z,99.99
2018-03-31T00:41:16.458Z,99.99
2018-03-31T00:41:42.598Z,99.99
2018-03-31T00:42:08.731Z,99.99
2018-03-31T00:42:34.866Z,99.99
2018-03-31T00:43:01.013Z,99.99
2018-03-31T00:43:27.146Z,99.99
2018-03-31T00:43:53.307Z,99.99
2018-03-31T00:44:19.440Z,99.99
2018-03-31T00:44:45.576Z,99.99
2018-03-31T00:45:11.727Z,99.99
2018-03-31T00:45:37.857Z,99.99
2018-03-31T00:46:03.992Z,99.99
2018-03-31T00:46:30.132Z,99.99
2018-03-31T00:46:56.289Z,99.99
2018-03-31T00:47:22.419Z,99.99
2018-03-31T00:47:48.558Z,99.99
2018-03-31T00:48:14.698Z,99.99
2018-03-31T00:48:40.838Z,99.99
2018-03-31T00:49:06.967Z,99.99
2018-03-31T00:49:33.159Z,99.99
2018-03-31T00:49:59.293Z,99.99
2018-03-31T00:50:25.433Z,99.99
2018-03-31T00:50:51.564Z,99.99
2018-03-31T00:51:17.698Z,99.99
2018-03-31T00:51:43.839Z,99.99
2018-03-31T00:52:09.979Z,99.99
2018-03-31T00:52:36.119Z,99.99
2018-03-31T00:53:02.248Z,99.99
2018-03-31T00:53:28.391Z,99.99
2018-03-31T00:53:54.520Z,99.99
2018-03-31T00:54:20.654Z,99.99
2018-03-31T00:54:46.793Z,99.99
2018-03-31T00:55:12.937Z,99.99
2018-03-31T00:55:39.065Z,99.99
2018-03-31T00:56:05.201Z,99.99
2018-03-31T00:56:31.339Z,99.99
2018-03-31T00:56:57.479Z,99.99
2018-03-31T00:57:23.614Z,99.99
2018-03-31T00:57:49.770Z,99.99
2018-03-31T00:58:15.909Z,99.99
2018-03-31T00:58:42.046Z,99.99
2018-03-31T00:59:08.179Z,99.99
2018-03-31T00:59:34.324Z,99.99
2018-03-31T01:00:00.453Z,99.99
2018-03-31T01:00:26.613Z,99.99
2018-03-31T01:00:52.755Z,99.99
2018-03-31T01:01:18.919Z,99.99
2018-03-31T01:01:45.059Z,99.99
2018-03-31T01:02:11.193Z,99.99
2018-03-31T01:02:37.354Z,99.99
2018-03-31T01:03:03.491Z,99.99
2018-03-31T01:03:29.632Z,99.99
2018-03-31T01:03:55.769Z,99.99
2018-03-31T01:04:21.909Z,99.99
2018-03-31T01:04:48.048Z,99.99
2018-03-31T01:05:14.241Z,99.99
2018-03-31T01:05:40.361Z,99.99
2018-03-31T01:06:06.499Z,99.99
2018-03-31T01:06:32.638Z,99.99
2018-03-31T01:06:58.776Z,99.99
2018-03-31T01:07:24.909Z,99.99
2018-03-31T01:07:51.046Z,99.99
2018-03-31T01:08:17.181Z,99.99
2018-03-31T01:08:43.318Z,99.99
2018-03-31T01:09:09.453Z,99.99
2018-03-31T01:09:35.593Z,99.99
2018-03-31T01:10:01.733Z,99.99
2018-03-31T01:10:27.871Z,99.99
2018-03-31T01:10:54.052Z,99.99
2018-03-31T01:11:20.158Z,99.99
2018-03-31T01:11:46.291Z,99.99
2018-03-31T01:12:12.432Z,99.99
2018-03-31T01:12:38.566Z,99.99
2018-03-31T01:13:04.710Z,99.99
2018-03-31T01:13:30.845Z,99.99
2018-03-31T01:13:56.986Z,99.99
2018-03-31T01:14:23.122Z,99.99
2018-03-31T01:14:49.261Z,99.99
2018-03-31T01:15:15.397Z,99.99
2018-03-31T01:15:41.539Z,99.99
2018-03-31T01:16:07.672Z,99.99
2018-03-31T01:16:33.815Z,99.99
2018-03-31T01:16:59.953Z,99.99
2018-03-31T01:17:26.087Z,99.99
2018-03-31T01:17:52.225Z,99.99
2018-03-31T01:18:18.363Z,99.99
2018-03-31T01:18:44.504Z,99.99
2018-03-31T01:19:10.643Z,99.99
2018-03-31T01:19:36.780Z,99.99
2018-03-31T01:20:02.921Z,99.99
2018-03-31T01:20:29.061Z,99.99
2018-03-31T01:20:55.188Z,99.99
2018-03-31T01:21:21.353Z,99.99
2018-03-31T01:21:47.517Z,99.99
2018-03-31T01:22:13.663Z,99.99
2018-03-31T01:22:39.796Z,99.99
2018-03-31T01:23:05.929Z,99.99
2018-03-31T01:23:32.066Z,99.99
2018-03-31T01:23:58.200Z,99.99
2018-03-31T01:24:24.340Z,99.99
2018-03-31T01:24:50.485Z,99.99
2018-03-31T01:25:16.623Z,99.99
2018-03-31T01:25:42.762Z,99.99
2018-03-31T01:26:08.895Z,99.99
2018-03-31T01:26:35.033Z,99.99
2018-03-31T01:27:01.168Z,99.99
2018-03-31T01:27:27.334Z,99.99
2018-03-31T01:27:53.473Z,99.99
2018-03-31T01:28:19.641Z,99.99
2018-03-31T01:28:45.780Z,99.99
2018-03-31T01:29:11.907Z,99.99
2018-03-31T01:29:38.053Z,99.99
2018-03-31T01:30:04.188Z,99.99
2018-03-31T01:30:30.331Z,99.99
2018-03-31T01:30:56.465Z,99.99
2018-03-31T01:31:22.596Z,99.99
2018-03-31T01:31:48.758Z,99.99
2018-03-31T01:32:14.898Z,99.99
2018-03-31T01:32:41.039Z,99.99
2018-03-31T01:33:07.176Z,99.99
2018-03-31T01:33:33.313Z,99.99
2018-03-31T01:33:59.474Z,99.99
2018-03-31T01:34:25.621Z,99.99
2018-03-31T01:34:51.756Z,99.99
2018-03-31T01:35:17.915Z,99.99
2018-03-31T01:35:44.053Z,99.99
2018-03-31T01:36:10.197Z,99.99
2018-03-31T01:36:36.336Z,99.99
2018-03-31T01:37:02.473Z,99.99
2018-03-31T01:37:28.611Z,99.99
2018-03-31T01:37:54.745Z,99.99
2018-03-31T01:38:20.909Z,99.99
2018-03-31T01:38:47.041Z,99.99
2018-03-31T01:39:13.182Z,99.99
2018-03-31T01:39:39.315Z,99.99
2018-03-31T01:40:05.453Z,99.99
2018-03-31T01:40:31.610Z,99.99
2018-03-31T01:40:57.748Z,99.99
2018-03-31T01:41:23.910Z,99.99
2018-03-31T01:41:50.046Z,99.99
2018-03-31T01:42:16.189Z,99.99
2018-03-31T01:42:42.367Z,99.99
2018-03-31T01:43:08.527Z,99.99
2018-03-31T01:43:34.662Z,99.99
2018-03-31T01:44:00.801Z,99.99
2018-03-31T01:44:26.948Z,99.99
2018-03-31T01:44:53.111Z,99.99
2018-03-31T01:45:19.246Z,99.99
2018-03-31T01:45:45.386Z,99.99
2018-03-31T01:46:11.568Z,99.99
2018-03-31T01:46:37.710Z,99.99
2018-03-31T01:47:03.853Z,99.99
2018-03-31T01:47:29.992Z,99.99
2018-03-31T01:47:56.133Z,99.99
2018-03-31T01:48:22.289Z,99.99
2018-03-31T01:48:48.423Z,99.99
2018-03-31T01:49:14.560Z,99.99
2018-03-31T01:49:40.698Z,99.99
2018-03-31T01:50:06.836Z,99.99
2018-03-31T01:50:32.976Z,99.99
2018-03-31T01:50:59.112Z,99.99
2018-03-31T01:51:25.272Z,99.99
2018-03-31T01:51:51.413Z,99.99
2018-03-31T01:52:17.544Z,99.99
2018-03-31T01:52:43.683Z,99.99
2018-03-31T01:53:09.819Z,99.99
2018-03-31T01:53:35.964Z,99.99
2018-03-31T01:54:02.100Z,99.99
2018-03-31T01:54:28.242Z,99.99
2018-03-31T01:54:54.376Z,99.99
2018-03-31T01:55:20.518Z,99.99
2018-03-31T01:55:46.653Z,99.99
2018-03-31T01:56:12.781Z,99.99
2018-03-31T01:56:38.920Z,99.99
2018-03-31T01:57:05.060Z,99.99
2018-03-31T01:57:31.197Z,99.99
2018-03-31T01:57:57.332Z,99.99
2018-03-31T01:58:23.474Z,99.99
2018-03-31T01:58:49.611Z,99.99
2018-03-31T01:59:15.770Z,99.99
2018-03-31T01:59:41.960Z,99.99
2018-03-31T02:00:08.047Z,99.99
2018-03-31T02:00:34.183Z,99.99
2018-03-31T02:01:00.323Z,99.99
2018-03-31T02:01:26.455Z,99.99
2018-03-31T02:01:52.594Z,99.99
2018-03-31T02:02:18.731Z,99.99
2018-03-31T02:02:44.896Z,99.99
2018-03-31T02:03:11.046Z,99.99
2018-03-31T02:03:37.185Z,99.99
2018-03-31T02:04:03.316Z,99.99
2018-03-31T02:04:29.458Z,99.99
2018-03-31T02:04:55.600Z,99.99
2018-03-31T02:05:21.734Z,99.99
2018-03-31T02:05:47.896Z,99.99
2018-03-31T02:06:14.032Z,99.99
2018-03-31T02:06:40.173Z,99.99
2018-03-31T02:07:06.302Z,99.99
2018-03-31T02:07:32.445Z,99.99
2018-03-31T02:07:58.606Z,99.99
2018-03-31T02:08:24.741Z,99.99
2018-03-31T02:08:50.878Z,99.99
2018-03-31T02:09:17.009Z,99.99
2018-03-31T02:09:43.148Z,99.99
2018-03-31T02:10:09.290Z,99.99
2018-03-31T02:10:35.418Z,99.99
2018-03-31T02:11:01.552Z,99.99
2018-03-31T02:11:27.707Z,99.99
2018-03-31T02:11:53.845Z,99.99
2018-03-31T02:12:19.982Z,99.99
2018-03-31T02:12:46.120Z,99.99
2018-03-31T02:13:12.255Z,99.99
2018-03-31T02:13:38.401Z,99.99
2018-03-31T02:14:04.541Z,99.99
2018-03-31T02:14:30.668Z,99.99
2018-03-31T02:14:56.810Z,99.99
2018-03-31T02:15:22.945Z,99.99
2018-03-31T02:15:49.089Z,99.99
2018-03-31T02:16:15.220Z,99.99
2018-03-31T02:16:41.357Z,99.99
2018-03-31T02:17:07.494Z,99.99
2018-03-31T02:17:33.636Z,99.99
2018-03-31T02:17:59.772Z,99.99
2018-03-31T02:18:25.923Z,99.99
2018-03-31T02:18:52.039Z,99.99
2018-03-31T02:19:18.182Z,99.99
2018-03-31T02:19:44.311Z,99.99
2018-03-31T02:20:10.449Z,99.99
2018-03-31T02:20:36.584Z,99.99
2018-03-31T02:21:02.723Z,99.99
2018-03-31T02:21:28.860Z,99.99
2018-03-31T02:21:55.001Z,99.99
2018-03-31T02:22:21.139Z,99.99
2018-03-31T02:22:47.276Z,99.99
2018-03-31T02:23:13.410Z,99.99
2018-03-31T02:23:39.551Z,99.99
2018-03-31T02:24:05.708Z,99.99
2018-03-31T02:24:31.845Z,99.99
2018-03-31T02:24:57.981Z,99.99
2018-03-31T02:25:24.123Z,99.99
2018-03-31T02:25:50.261Z,99.99
2018-03-31T02:26:16.402Z,99.99
2018-03-31T02:26:42.532Z,99.99
2018-03-31T02:27:08.672Z,99.99
2018-03-31T02:27:34.810Z,99.99
2018-03-31T02:28:00.973Z,99.99
2018-03-31T02:28:27.110Z,99.99
2018-03-31T02:28:53.243Z,99.99
2018-03-31T02:29:19.381Z,99.99
2018-03-31T02:29:45.547Z,99.99
2018-03-31T02:30:11.683Z,99.99
2018-03-31T02:30:37.896Z,99.99
2018-03-31T02:31:04.041Z,99.99
2018-03-31T02:31:30.197Z,99.99
2018-03-31T02:31:56.325Z,99.99
2018-03-31T02:32:22.495Z,99.99
2018-03-31T02:32:48.654Z,99.99
2018-03-31T02:33:14.791Z,99.99
2018-03-31T02:33:40.925Z,99.99
2018-03-31T02:34:07.055Z,99.99
2018-03-31T02:34:33.195Z,99.99
2018-03-31T02:34:59.328Z,99.99
2018-03-31T02:35:25.467Z,99.99
2018-03-31T02:35:51.603Z,99.99
2018-03-31T02:36:17.770Z,99.99
2018-03-31T02:36:43.903Z,99.99
2018-03-31T02:37:10.046Z,99.99
2018-03-31T02:37:36.183Z,99.99
2018-03-31T02:38:02.317Z,99.99
2018-03-31T02:38:28.454Z,99.99
2018-03-31T02:38:54.597Z,99.99
2018-03-31T02:39:20.753Z,99.99
2018-03-31T02:39:46.878Z,99.99
2018-03-31T02:40:13.025Z,99.99
2018-03-31T02:40:39.154Z,99.99
2018-03-31T02:41:05.291Z,99.99
2018-03-31T02:41:31.454Z,99.99
2018-03-31T02:41:57.592Z,99.99
2018-03-31T02:42:23.728Z,99.99
2018-03-31T02:42:49.867Z,99.99
2018-03-31T02:43:16.002Z,99.99
2018-03-31T02:43:42.146Z,99.99
2018-03-31T02:44:08.281Z,99.99
2018-03-31T02:44:34.443Z,99.99
2018-03-31T02:45:00.593Z,99.99
2018-03-31T02:45:26.719Z,99.99
2018-03-31T02:45:52.854Z,99.99
2018-03-31T02:46:18.993Z,99.99
2018-03-31T02:46:45.134Z,99.99
2018-03-31T02:47:11.294Z,99.99
2018-03-31T02:47:37.431Z,99.99
2018-03-31T02:48:03.565Z,99.99
2018-03-31T02:48:29.698Z,99.99
2018-03-31T02:48:55.865Z,99.99
2018-03-31T02:49:22.025Z,99.99
2018-03-31T02:49:48.158Z,99.99
2018-03-31T02:50:14.295Z,99.99
2018-03-31T02:50:40.432Z,99.99
2018-03-31T02:51:06.570Z,99.99
2018-03-31T02:51:32.754Z,99.99
2018-03-31T02:51:58.894Z,99.99
2018-03-31T02:52:25.027Z,99.99
2018-03-31T02:52:51.164Z,99.99
2018-03-31T02:53:17.313Z,99.99
2018-03-31T02:53:43.440Z,99.99
2018-03-31T02:54:09.597Z,99.99
2018-03-31T02:54:35.811Z,99.99
2018-03-31T02:55:02.014Z,99.99
2018-03-31T02:55:28.341Z,99.99
2018-03-31T02:55:54.482Z,99.99
2018-03-31T02:56:20.637Z,99.99
2018-03-31T02:56:46.775Z,99.99
2018-03-31T02:57:12.899Z,99.99
2018-03-31T02:57:39.037Z,99.99
2018-03-31T02:58:05.177Z,99.99
2018-03-31T02:58:31.344Z,99.99
2018-03-31T02:58:57.526Z,99.99
2018-03-31T02:59:23.645Z,99.99
2018-03-31T02:59:49.815Z,99.99
2018-03-31T03:00:15.951Z,99.99
2018-03-31T03:00:42.086Z,99.99
2018-03-31T03:01:08.230Z,99.99
2018-03-31T03:01:34.388Z,99.99
2018-03-31T03:02:00.548Z,99.99
2018-03-31T03:02:26.709Z,99.99
2018-03-31T03:02:52.845Z,99.99
2018-03-31T03:03:18.982Z,99.99
2018-03-31T03:03:45.130Z,99.99
2018-03-31T03:04:11.326Z,99.99
2018-03-31T03:04:37.488Z,99.99
2018-03-31T03:05:03.622Z,99.99
2018-03-31T03:05:29.808Z,99.99
2018-03-31T03:05:55.939Z,99.99
2018-03-31T03:06:22.071Z,99.99
2018-03-31T03:06:48.205Z,99.99
2018-03-31T03:07:14.370Z,99.99
2018-03-31T03:07:40.540Z,99.99
2018-03-31T03:08:06.673Z,99.99
2018-03-31T03:08:32.814Z,99.99
2018-03-31T03:08:58.950Z,99.99
2018-03-31T03:09:25.102Z,99.99
2018-03-31T03:09:51.230Z,99.99
2018-03-31T03:10:17.371Z,99.99
2018-03-31T03:10:43.506Z,99.99
2018-03-31T03:11:09.684Z,99.99
2018-03-31T03:11:35.854Z,99.99
2018-03-31T03:12:02.000Z,99.99
2018-03-31T03:12:28.164Z,99.99
2018-03-31T03:12:54.311Z,99.99
2018-03-31T03:13:20.474Z,99.99
2018-03-31T03:13:46.844Z,99.79
2018-03-31T03:14:12.975Z,99.99
2018-03-31T03:14:39.166Z,99.99
2018-03-31T03:15:05.315Z,99.99
2018-03-31T03:15:31.698Z,99.99
2018-03-31T03:15:58.228Z,99.99
2018-03-31T03:16:24.396Z,99.99
2018-03-31T03:16:50.532Z,99.99
2018-03-31T03:17:16.667Z,99.99
2018-03-31T03:17:42.825Z,99.99
2018-03-31T03:18:09.487Z,99.99
2018-03-31T03:18:35.800Z,99.99
2018-03-31T03:19:01.928Z,99.99
2018-03-31T03:19:28.068Z,99.99
2018-03-31T03:19:54.204Z,99.99
2018-03-31T03:20:20.340Z,99.99
2018-03-31T03:20:47.145Z,99.99
2018-03-31T03:21:13.359Z,99.99
2018-03-31T03:21:39.490Z,99.99
2018-03-31T03:22:05.630Z,99.99
2018-03-31T03:22:31.766Z,99.99
2018-03-31T03:22:57.937Z,99.99
2018-03-31T03:23:24.198Z,99.99
2018-03-31T03:23:50.358Z,99.99
2018-03-31T03:24:16.490Z,99.99
2018-03-31T03:24:42.627Z,99.99
2018-03-31T03:25:08.808Z,99.99
2018-03-31T03:25:35.173Z,99.99
2018-03-31T03:26:01.542Z,99.99
2018-03-31T03:26:27.703Z,99.99
2018-03-31T03:26:53.852Z,99.99
2018-03-31T03:27:19.981Z,99.99
2018-03-31T03:27:46.119Z,99.99
2018-03-31T03:28:12.314Z,99.99
2018-03-31T03:28:38.989Z,99.99
2018-03-31T03:29:05.125Z,99.99
2018-03-31T03:29:31.261Z,99.99
2018-03-31T03:29:57.400Z,99.99
2018-03-31T03:30:23.536Z,99.99
2018-03-31T03:30:49.934Z,99.99
2018-03-31T03:31:16.064Z,99.99
2018-03-31T03:31:42.200Z,99.99
2018-03-31T03:32:08.359Z,99.89
2018-03-31T03:32:34.501Z,99.99
2018-03-31T03:33:00.636Z,99.89
2018-03-31T03:33:27.576Z,99.99
2018-03-31T03:33:53.690Z,99.51
2018-03-31T03:34:19.829Z,99.41
2018-03-31T03:34:45.981Z,99.51
2018-03-31T03:35:12.133Z,99.41
2018-03-31T03:35:38.352Z,99.22
2018-03-31T03:36:05.057Z,99.03
2018-03-31T03:36:31.188Z,99.41
2018-03-31T03:36:57.326Z,99.32
2018-03-31T03:37:23.465Z,99.99
2018-03-31T03:37:49.602Z,99.32
2018-03-31T03:38:15.881Z,99.32
2018-03-31T03:38:42.156Z,99.98
2018-03-31T03:39:08.320Z,99.89
2018-03-31T03:39:34.453Z,99.98
2018-03-31T03:40:00.614Z,99.79
2018-03-31T03:40:26.749Z,99.89
2018-03-31T03:40:52.920Z,99.22
2018-03-31T03:41:19.325Z,99.22
2018-03-31T03:41:45.508Z,98.84
2018-03-31T03:42:11.665Z,98.65
2018-03-31T03:42:37.826Z,99.22
2018-03-31T03:43:03.971Z,99.03
2018-03-31T03:43:30.379Z,99.22
2018-03-31T03:43:56.621Z,99.51
2018-03-31T03:44:22.779Z,99.6
2018-03-31T03:44:48.919Z,98.74
2018-03-31T03:45:15.054Z,98.46
2018-03-31T03:45:41.212Z,98.27
2018-03-31T03:46:07.361Z,98.36
2018-03-31T03:46:33.809Z,98.84
2018-03-31T03:47:00.224Z,98.36
2018-03-31T03:47:26.361Z,98.18
2018-03-31T03:47:52.506Z,98.36
2018-03-31T03:48:18.739Z,98.13
2018-03-31T03:48:44.832Z,98.41
2018-03-31T03:49:11.260Z,98.03
2018-03-31T03:49:37.396Z,97.51
2018-03-31T03:50:03.532Z,97.7
2018-03-31T03:50:29.876Z,97.89
2018-03-31T03:50:56.177Z,97.84
2018-03-31T03:51:22.311Z,97.7
2018-03-31T03:51:48.473Z,97.84
2018-03-31T03:52:14.636Z,97.51
2018-03-31T03:52:40.771Z,97.51
2018-03-31T03:53:06.913Z,97.31
2018-03-31T03:53:33.048Z,97.79
2018-03-31T03:53:59.182Z,97.7
2018-03-31T03:54:25.340Z,98.55
2018-03-31T03:54:51.479Z,98.36
2018-03-31T03:55:17.619Z,98.55
2018-03-31T03:55:43.769Z,98.36
2018-03-31T03:56:09.898Z,97.41
2018-03-31T03:56:36.042Z,98.27
2018-03-31T03:57:02.184Z,98.46
2018-03-31T03:57:28.321Z,98.18
2018-03-31T03:57:54.456Z,98.55
2018-03-31T03:58:20.595Z,98.84
2018-03-31T03:58:46.733Z,98.65
2018-03-31T03:59:12.873Z,98.74
2018-03-31T03:59:39.009Z,98.94
2018-03-31T04:00:05.144Z,99.13
2018-03-31T04:00:31.303Z,98.46
2018-03-31T04:00:57.446Z,98.27
2018-03-31T04:01:23.582Z,98.36
2018-03-31T04:01:49.721Z,98.36
2018-03-31T04:02:15.854Z,98.27
2018-03-31T04:02:41.998Z,97.51
2018-03-31T04:03:08.159Z,98.36
2018-03-31T04:03:34.292Z,98.46
2018-03-31T04:04:00.439Z,98.36
2018-03-31T04:04:26.604Z,98.46
2018-03-31T04:04:52.738Z,98.36
2018-03-31T04:05:18.872Z,98.27
2018-03-31T04:05:45.042Z,97.89
2018-03-31T04:06:11.184Z,97.6
2018-03-31T04:06:37.322Z,98.18
2018-03-31T04:07:03.461Z,98.46
2018-03-31T04:07:29.597Z,97.7
2018-03-31T04:07:55.732Z,97.89
2018-03-31T04:08:21.868Z,97.79
2018-03-31T04:08:48.032Z,97.7
2018-03-31T04:09:14.164Z,97.7
2018-03-31T04:09:40.299Z,97.51
2018-03-31T04:10:06.434Z,97.6
2018-03-31T04:10:32.569Z,97.51
2018-03-31T04:10:58.706Z,97.6
2018-03-31T04:11:24.845Z,97.03
2018-03-31T04:11:50.979Z,97.51
2018-03-31T04:12:17.121Z,97.03
2018-03-31T04:12:43.283Z,97.51
2018-03-31T04:13:09.424Z,97.41
2018-03-31T04:13:35.560Z,97.22
2018-03-31T04:14:01.697Z,97.7
2018-03-31T04:14:27.834Z,97.6
2018-03-31T04:14:53.966Z,97.31
2018-03-31T04:15:20.121Z,97.31
2018-03-31T04:15:46.254Z,97.51
2018-03-31T04:16:12.391Z,97.51
2018-03-31T04:16:38.532Z,97.31
2018-03-31T04:17:04.668Z,97.31
2018-03-31T04:17:30.800Z,97.41
2018-03-31T04:17:56.941Z,97.7
2018-03-31T04:18:23.070Z,97.22
2018-03-31T04:18:49.209Z,97.6
2018-03-31T04:19:15.351Z,97.31
2018-03-31T04:19:41.488Z,97.51
2018-03-31T04:20:07.624Z,97.31
2018-03-31T04:20:33.762Z,97.41
2018-03-31T04:20:59.898Z,97.7
2018-03-31T04:21:26.038Z,97.7
2018-03-31T04:21:52.170Z,97.99
2018-03-31T04:22:18.305Z,97.79
2018-03-31T04:22:44.444Z,97.6
2018-03-31T04:23:10.625Z,97.7
2018-03-31T04:23:36.755Z,98.27
2018-03-31T04:24:02.898Z,98.46
2018-03-31T04:24:29.034Z,98.65
2018-03-31T04:24:55.175Z,98.36
2018-03-31T04:25:21.313Z,98.46
2018-03-31T04:25:47.446Z,98.18
2018-03-31T04:26:13.581Z,98.03
2018-03-31T04:26:39.718Z,98.6
2018-03-31T04:27:05.855Z,98.84
2018-03-31T04:27:31.993Z,99.13
2018-03-31T04:27:58.128Z,99.41
2018-03-31T04:28:24.268Z,99.27
2018-03-31T04:28:50.409Z,99.27
2018-03-31T04:29:16.544Z,99.41
2018-03-31T04:29:42.671Z,98.98
2018-03-31T04:30:08.810Z,99.03
2018-03-31T04:30:34.948Z,98.94
2018-03-31T04:31:01.088Z,99.03
2018-03-31T04:31:27.218Z,98.65
2018-03-31T04:31:53.357Z,98.84
2018-03-31T04:32:19.489Z,98.79
2018-03-31T04:32:45.643Z,99.46
2018-03-31T04:33:11.823Z,99.41
2018-03-31T04:33:37.960Z,99.36
2018-03-31T04:34:04.127Z,99.36
2018-03-31T04:34:30.264Z,99.17
2018-03-31T04:34:56.440Z,99.27
2018-03-31T04:35:22.546Z,99.36
2018-03-31T04:35:48.673Z,99.74
2018-03-31T04:36:14.810Z,99.93
2018-03-31T04:36:40.948Z,99.99
2018-03-31T04:37:07.089Z,99.99
2018-03-31T04:37:33.224Z,99.79
2018-03-31T04:37:59.358Z,99.69
2018-03-31T04:38:25.501Z,99.89
2018-03-31T04:38:51.640Z,99.93
2018-03-31T04:39:17.774Z,99.74
2018-03-31T04:39:43.909Z,99.13
2018-03-31T04:40:10.048Z,99.27
2018-03-31T04:40:36.181Z,99.17
2018-03-31T04:41:02.318Z,99.6
2018-03-31T04:41:28.453Z,99.22
2018-03-31T04:41:54.594Z,99.41
2018-03-31T04:42:20.724Z,99.13
2018-03-31T04:42:46.866Z,98.94
2018-03-31T04:43:12.999Z,99.13
2018-03-31T04:43:39.134Z,98.79
2018-03-31T04:44:05.271Z,98.79
2018-03-31T04:44:31.405Z,98.88
2018-03-31T04:44:57.575Z,98.98
2018-03-31T04:45:23.716Z,98.98
2018-03-31T04:45:49.854Z,99.13
2018-03-31T04:46:15.989Z,98.84
2018-03-31T04:46:42.135Z,98.94
2018-03-31T04:47:08.273Z,98.88
2018-03-31T04:47:34.407Z,99.03
2018-03-31T04:48:00.548Z,99.08
2018-03-31T04:48:26.740Z,98.88
2018-03-31T04:48:52.842Z,98.6
2018-03-31T04:49:18.985Z,98.79
2018-03-31T04:49:45.129Z,98.6
2018-03-31T04:50:11.261Z,98.6
2018-03-31T04:50:37.397Z,99.03
2018-03-31T04:51:03.534Z,99.08
2018-03-31T04:51:29.670Z,98.79
2018-03-31T04:51:55.808Z,99.22
2018-03-31T04:52:21.941Z,98.6
2018-03-31T04:52:48.081Z,98.79
2018-03-31T04:53:14.222Z,98.65
2018-03-31T04:53:40.366Z,98.6
2018-03-31T04:54:06.500Z,98.08
2018-03-31T04:54:32.639Z,98.5
2018-03-31T04:54:58.769Z,98.41
2018-03-31T04:55:24.907Z,98.13
2018-03-31T04:55:51.045Z,97.99
2018-03-31T04:56:17.181Z,98.13
2018-03-31T04:56:43.312Z,98.03
2018-03-31T04:57:09.453Z,98.41
2018-03-31T04:57:35.590Z,98.41
2018-03-31T04:58:01.724Z,98.6
2018-03-31T04:58:27.857Z,98.32
2018-03-31T04:58:53.998Z,97.65
2018-03-31T04:59:20.140Z,97.36
2018-03-31T04:59:46.271Z,98.41
2018-03-31T05:00:12.463Z,97.93
2018-03-31T05:00:38.567Z,97.93
2018-03-31T05:01:04.700Z,98.03
2018-03-31T05:01:30.864Z,98.41
2018-03-31T05:01:57.010Z,98.32
2018-03-31T05:02:23.141Z,98.79
2018-03-31T05:02:49.277Z,98.5
2018-03-31T05:03:15.418Z,99.08
2018-03-31T05:03:41.560Z,98.69
2018-03-31T05:04:07.699Z,98.41
2018-03-31T05:04:33.857Z,98.6
2018-03-31T05:05:00.022Z,98.41
2018-03-31T05:05:26.181Z,98.6
2018-03-31T05:05:52.319Z,98.98
2018-03-31T05:06:18.460Z,98.6
2018-03-31T05:06:44.622Z,98.98
2018-03-31T05:07:10.753Z,99.08
2018-03-31T05:07:36.889Z,98.88
2018-03-31T05:08:03.073Z,98.41
2018-03-31T05:08:29.238Z,99.17
2018-03-31T05:08:55.367Z,98.6
2018-03-31T05:09:21.532Z,99.08
2018-03-31T05:09:47.675Z,98.98
2018-03-31T05:10:13.810Z,99.36
2018-03-31T05:10:39.952Z,99.08
2018-03-31T05:11:06.096Z,99.36
2018-03-31T05:11:32.227Z,98.98
2018-03-31T05:11:58.389Z,99.08
2018-03-31T05:12:24.508Z,99.36
2018-03-31T05:12:50.635Z,99.46
2018-03-31T05:13:16.766Z,98.79
2018-03-31T05:13:42.909Z,98.98
2018-03-31T05:14:09.040Z,99.08
2018-03-31T05:14:35.183Z,99.27
2018-03-31T05:15:01.374Z,99.08
2018-03-31T05:15:27.529Z,99.08
2018-03-31T05:15:53.661Z,98.6
2018-03-31T05:16:19.796Z,98.6
2018-03-31T05:16:45.968Z,98.79
2018-03-31T05:17:12.105Z,98.5
2018-03-31T05:17:38.237Z,98.79
2018-03-31T05:18:04.376Z,99.08
2018-03-31T05:18:30.518Z,99.46
2018-03-31T05:18:56.652Z,99.17
2018-03-31T05:19:22.786Z,99.17
2018-03-31T05:19:48.940Z,99.08
2018-03-31T05:20:15.076Z,98.98
2018-03-31T05:20:41.211Z,99.55
2018-03-31T05:21:07.348Z,99.36
2018-03-31T05:21:33.486Z,99.99
2018-03-31T05:21:59.624Z,99.99
2018-03-31T05:22:25.753Z,99.74
2018-03-31T05:22:51.896Z,99.36
2018-03-31T05:23:18.035Z,99.08
2018-03-31T05:23:44.174Z,99.36
2018-03-31T05:24:10.312Z,99.55
2018-03-31T05:24:36.477Z,99.17
2018-03-31T05:25:02.616Z,99.27
2018-03-31T05:25:28.747Z,98.98
2018-03-31T05:25:54.905Z,99.08
2018-03-31T05:26:21.104Z,99.08
2018-03-31T05:26:47.184Z,98.79
2018-03-31T05:27:13.350Z,98.69
2018-03-31T05:27:39.489Z,98.32
2018-03-31T05:28:05.626Z,98.6
2018-03-31T05:28:31.790Z,98.6
2018-03-31T05:28:57.931Z,98.13
2018-03-31T05:29:24.061Z,98.13
2018-03-31T05:29:50.192Z,97.93
2018-03-31T05:30:16.335Z,98.03
2018-03-31T05:30:42.480Z,98.13
2018-03-31T05:31:08.622Z,98.32
2018-03-31T05:31:34.754Z,98.32
2018-03-31T05:32:00.891Z,98.22
2018-03-31T05:32:27.028Z,98.32
2018-03-31T05:32:53.166Z,98.22
2018-03-31T05:33:19.306Z,98.41
2018-03-31T05:33:45.439Z,98.03
2018-03-31T05:34:11.571Z,98.32
2018-03-31T05:34:37.715Z,98.32
2018-03-31T05:35:03.847Z,98.03
2018-03-31T05:35:29.992Z,97.65
2018-03-31T05:35:56.150Z,97.65
2018-03-31T05:36:22.314Z,97.74
2018-03-31T05:36:48.445Z,97.84
2018-03-31T05:37:14.583Z,97.84